createdAt,value
2024-01-17T00:00:14.828Z,-1.44
2024-01-17T00:02:41.801Z,-1.46
2024-01-17T00:05:11.285Z,-1.47
2024-01-17T00:07:38.215Z,-1.48
2024-01-17T00:10:07.568Z,-1.50
2024-01-17T00:12:34.235Z,-1.56
2024-01-17T00:15:00.861Z,-1.56
2024-01-17T00:17:27.545Z,-1.57
2024-01-17T00:19:54.074Z,-1.59
2024-01-17T00:22:20.803Z,-1.61
2024-01-17T00:24:47.313Z,-1.63
2024-01-17T00:27:14.421Z,-1.66
2024-01-17T00:29:41.750Z,-1.69
2024-01-17T00:32:09.879Z,-1.71
2024-01-17T00:34:40.120Z,-1.73
2024-01-17T00:37:07.313Z,-1.75
2024-01-17T00:39:33.816Z,-1.75
2024-01-17T00:42:00.935Z,-1.76
2024-01-17T00:44:29.401Z,-1.78
2024-01-17T00:46:56.363Z,-1.79
2024-01-17T00:49:22.910Z,-1.84
2024-01-17T00:51:49.493Z,-1.86
2024-01-17T00:54:16.005Z,-1.91
2024-01-17T00:56:42.574Z,-1.93
2024-01-17T00:59:09.221Z,-1.95
2024-01-17T01:01:35.987Z,-1.97
2024-01-17T01:04:02.579Z,-1.98
2024-01-17T01:06:29.122Z,-1.99
2024-01-17T01:08:55.759Z,-2.01
2024-01-17T01:11:22.451Z,-2.04
2024-01-17T01:13:48.944Z,-2.08
2024-01-17T01:16:15.668Z,-2.12
2024-01-17T01:18:42.345Z,-2.18
2024-01-17T01:21:08.937Z,-2.21
2024-01-17T01:23:35.492Z,-2.27
2024-01-17T01:26:02.046Z,-2.29
2024-01-17T01:28:28.726Z,-2.33
2024-01-17T01:30:55.455Z,-2.37
2024-01-17T01:33:22.512Z,-2.41
2024-01-17T01:35:49.701Z,-2.46
2024-01-17T01:38:16.309Z,-2.52
2024-01-17T01:40:43.589Z,-2.55
2024-01-17T01:43:23.341Z,-2.59
2024-01-17T01:46:05.200Z,-2.65
2024-01-17T01:48:32.768Z,-2.68
2024-01-17T01:50:59.585Z,-2.73
2024-01-17T01:53:27.290Z,-2.77
2024-01-17T01:55:54.443Z,-2.81
2024-01-17T01:58:22.888Z,-2.83
2024-01-17T02:00:50.643Z,-2.86
2024-01-17T02:03:17.516Z,-2.90
2024-01-17T02:05:44.875Z,-2.90
2024-01-17T02:08:12.206Z,-2.93
2024-01-17T02:10:39.111Z,-2.95
2024-01-17T02:13:05.713Z,-2.99
2024-01-17T02:15:32.216Z,-3.00
2024-01-17T02:17:58.880Z,-3.03
2024-01-17T02:20:25.473Z,-3.04
2024-01-17T02:22:51.985Z,-3.07
2024-01-17T02:25:18.529Z,-3.09
2024-01-17T02:27:45.221Z,-3.12
2024-01-17T02:30:13.559Z,-3.16
2024-01-17T02:32:40.221Z,-3.18
2024-01-17T02:35:07.130Z,-3.21
2024-01-17T02:37:33.653Z,-3.23
2024-01-17T02:40:00.227Z,-3.24
2024-01-17T02:42:26.879Z,-3.27
2024-01-17T02:44:53.443Z,-3.29
2024-01-17T02:47:19.985Z,-3.30
2024-01-17T02:49:46.574Z,-3.31
2024-01-17T02:52:13.120Z,-3.32
2024-01-17T02:54:39.703Z,-3.34
2024-01-17T02:57:06.425Z,-3.37
2024-01-17T02:59:33.928Z,-3.38
2024-01-17T03:02:00.487Z,-3.39
2024-01-17T03:04:27.024Z,-3.41
2024-01-17T03:06:54.207Z,-3.42
2024-01-17T03:09:21.052Z,-3.42
2024-01-17T03:11:47.987Z,-3.42
2024-01-17T03:14:14.566Z,-3.45
2024-01-17T03:16:41.305Z,-3.45
2024-01-17T03:19:08.718Z,-3.48
2024-01-17T03:21:35.388Z,-3.50
2024-01-17T03:24:01.993Z,-3.53
2024-01-17T03:26:29.792Z,-3.56
2024-01-17T03:28:56.337Z,-3.59
2024-01-17T03:31:22.879Z,-3.60
2024-01-17T03:33:49.494Z,-3.63
2024-01-17T03:36:16.193Z,-3.67
2024-01-17T03:38:42.732Z,-3.69
2024-01-17T03:41:09.543Z,-3.68
2024-01-17T03:43:36.019Z,-3.70
2024-01-17T03:46:02.613Z,-3.73
2024-01-17T03:48:29.291Z,-3.72
2024-01-17T03:50:55.910Z,-3.72
2024-01-17T03:53:22.473Z,-3.73
2024-01-17T03:55:48.961Z,-3.77
2024-01-17T03:58:15.464Z,-3.76
2024-01-17T04:00:42.125Z,-3.77
2024-01-17T04:03:13.490Z,-3.77
2024-01-17T04:05:41.659Z,-3.80
2024-01-17T04:08:08.538Z,-3.80
2024-01-17T04:10:35.068Z,-3.83
2024-01-17T04:13:01.653Z,-3.84
2024-01-17T04:15:28.143Z,-3.85
2024-01-17T04:17:54.799Z,-3.86
2024-01-17T04:20:21.664Z,-3.88
2024-01-17T04:22:48.268Z,-3.90
2024-01-17T04:25:14.981Z,-3.91
2024-01-17T04:27:41.990Z,-3.93
2024-01-17T04:30:12.286Z,-3.95
2024-01-17T04:32:39.002Z,-3.99
2024-01-17T04:35:06.299Z,-3.99
2024-01-17T04:37:32.983Z,-4.03
2024-01-17T04:39:59.574Z,-4.05
2024-01-17T04:42:26.196Z,-4.08
2024-01-17T04:44:52.747Z,-4.11
2024-01-17T04:47:20.055Z,-4.12
2024-01-17T04:49:47.957Z,-4.12
2024-01-17T04:52:17.420Z,-4.12
2024-01-17T04:54:44.079Z,-4.14
2024-01-17T04:57:11.108Z,-4.16
2024-01-17T04:59:38.312Z,-4.20
2024-01-17T05:02:04.899Z,-4.26
2024-01-17T05:04:31.450Z,-4.30
2024-01-17T05:06:57.970Z,-4.32
2024-01-17T05:09:24.458Z,-4.31
2024-01-17T05:11:52.398Z,-4.32
2024-01-17T05:14:18.928Z,-4.35
2024-01-17T05:16:46.103Z,-4.37
2024-01-17T05:19:15.308Z,-4.40
2024-01-17T05:21:44.032Z,-4.44
2024-01-17T05:24:10.611Z,-4.50
2024-01-17T05:26:37.163Z,-4.50
2024-01-17T05:29:03.710Z,-4.49
2024-01-17T05:31:30.241Z,-4.46
2024-01-17T05:33:56.992Z,-4.42
2024-01-17T05:36:23.613Z,-4.40
2024-01-17T05:38:50.207Z,-4.39
2024-01-17T05:41:16.824Z,-4.40
2024-01-17T05:43:43.629Z,-4.40
2024-01-17T05:46:10.287Z,-4.41
2024-01-17T05:48:36.903Z,-4.41
2024-01-17T05:51:03.585Z,-4.42
2024-01-17T05:53:30.220Z,-4.41
2024-01-17T05:55:56.732Z,-4.40
2024-01-17T05:58:23.246Z,-4.41
2024-01-17T06:00:49.780Z,-4.43
2024-01-17T06:03:16.778Z,-4.41
2024-01-17T06:05:43.494Z,-4.39
2024-01-17T06:08:10.887Z,-4.37
2024-01-17T06:10:38.978Z,-4.39
2024-01-17T06:13:06.260Z,-4.37
2024-01-17T06:15:32.952Z,-4.39
2024-01-17T06:18:01.251Z,-4.41
2024-01-17T06:20:27.869Z,-4.43
2024-01-17T06:22:54.411Z,-4.45
2024-01-17T06:25:20.889Z,-4.47
2024-01-17T06:27:47.382Z,-4.48
2024-01-17T06:30:14.117Z,-4.49
2024-01-17T06:32:41.043Z,-4.49
2024-01-17T06:35:11.267Z,-4.49
2024-01-17T06:37:38.067Z,-4.48
2024-01-17T06:40:05.346Z,-4.49
2024-01-17T06:42:32.088Z,-4.49
2024-01-17T06:44:58.618Z,-4.51
2024-01-17T06:47:25.185Z,-4.52
2024-01-17T06:49:51.832Z,-4.51
2024-01-17T06:52:18.409Z,-4.52
2024-01-17T06:54:44.979Z,-4.52
2024-01-17T06:57:11.640Z,-4.52
2024-01-17T06:59:38.296Z,-4.53
2024-01-17T07:02:04.857Z,-4.57
2024-01-17T07:04:31.402Z,-4.57
2024-01-17T07:06:57.984Z,-4.57
2024-01-17T07:09:24.573Z,-4.54
2024-01-17T07:11:51.186Z,-4.55
2024-01-17T07:14:17.850Z,-4.54
2024-01-17T07:16:44.309Z,-4.55
2024-01-17T07:19:10.814Z,-4.56
2024-01-17T07:21:40.867Z,-4.54
2024-01-17T07:24:07.664Z,-4.53
2024-01-17T07:26:34.271Z,-4.54
2024-01-17T07:29:00.768Z,-4.52
2024-01-17T07:31:28.060Z,-4.51
2024-01-17T07:33:54.684Z,-4.47
2024-01-17T07:36:21.383Z,-4.43
2024-01-17T07:38:47.964Z,-4.39
2024-01-17T07:41:14.509Z,-4.34
2024-01-17T07:43:40.974Z,-4.28
2024-01-17T07:46:07.487Z,-4.23
2024-01-17T07:48:34.775Z,-4.19
2024-01-17T07:51:01.506Z,-4.14
2024-01-17T07:53:28.455Z,-4.08
2024-01-17T07:55:55.746Z,-4.02
2024-01-17T07:58:22.304Z,-3.97
2024-01-17T08:00:48.864Z,-3.89
2024-01-17T08:03:15.714Z,-3.83
2024-01-17T08:05:42.644Z,-3.77
2024-01-17T08:08:10.563Z,-3.70
2024-01-17T08:10:39.205Z,-3.64
2024-01-17T08:13:06.816Z,-3.59
2024-01-17T08:15:33.554Z,-3.56
2024-01-17T08:18:00.141Z,-3.53
2024-01-17T08:20:27.087Z,-3.51
2024-01-17T08:22:53.623Z,-3.48
2024-01-17T08:25:20.162Z,-3.45
2024-01-17T08:27:46.856Z,-3.42
2024-01-17T08:30:13.648Z,-3.37
2024-01-17T08:32:40.846Z,-3.31
2024-01-17T08:35:08.289Z,-3.26
2024-01-17T08:37:35.726Z,-3.22
2024-01-17T08:40:02.367Z,-3.23
2024-01-17T08:42:29.162Z,-3.21
2024-01-17T08:44:55.954Z,-3.21
2024-01-17T08:47:22.518Z,-3.19
2024-01-17T08:49:49.199Z,-3.16
2024-01-17T08:52:15.728Z,-3.13
2024-01-17T08:54:42.243Z,-3.10
2024-01-17T08:57:08.827Z,-3.07
2024-01-17T08:59:36.693Z,-3.05
2024-01-17T09:02:03.861Z,-3.04
2024-01-17T09:04:31.115Z,-3.04
2024-01-17T09:06:57.879Z,-3.03
2024-01-17T09:09:26.930Z,-3.01
2024-01-17T09:11:54.528Z,-2.99
2024-01-17T09:14:22.730Z,-2.98
2024-01-17T09:16:51.422Z,-2.95
2024-01-17T09:19:19.107Z,-2.92
2024-01-17T09:21:45.771Z,-2.90
2024-01-17T09:24:12.328Z,-2.89
2024-01-17T09:26:39.443Z,-2.88
2024-01-17T09:29:06.028Z,-2.84
2024-01-17T09:31:32.594Z,-2.81
2024-01-17T09:33:59.210Z,-2.77
2024-01-17T09:36:26.152Z,-2.76
2024-01-17T09:38:53.587Z,-2.78
2024-01-17T09:41:20.161Z,-2.81
2024-01-17T09:43:46.871Z,-2.79
2024-01-17T09:46:14.119Z,-2.79
2024-01-17T09:48:41.721Z,-2.76
2024-01-17T09:51:08.426Z,-2.73
2024-01-17T09:53:35.448Z,-2.65
2024-01-17T09:56:03.484Z,-2.59
2024-01-17T09:58:33.856Z,-2.49
2024-01-17T10:01:02.105Z,-2.42
2024-01-17T10:03:30.221Z,-2.35
2024-01-17T10:05:57.608Z,-2.30
2024-01-17T10:08:24.291Z,-2.28
2024-01-17T10:10:52.113Z,-2.23
2024-01-17T10:13:18.674Z,-2.21
2024-01-17T10:15:47.935Z,-2.20
2024-01-17T10:18:15.216Z,-2.14
2024-01-17T10:20:43.438Z,-2.09
2024-01-17T10:23:09.954Z,-2.06
2024-01-17T10:25:43.174Z,-2.02
2024-01-17T10:28:09.974Z,-1.96
2024-01-17T10:30:42.490Z,-1.87
2024-01-17T10:33:09.301Z,-1.79
2024-01-17T10:35:36.323Z,-1.74
2024-01-17T10:38:03.674Z,-1.67
2024-01-17T10:40:30.244Z,-1.61
2024-01-17T10:43:10.708Z,-1.53
2024-01-17T10:45:39.253Z,-1.42
2024-01-17T10:48:07.006Z,-1.33
2024-01-17T10:50:33.796Z,-1.23
2024-01-17T10:53:06.688Z,-1.15
2024-01-17T10:55:36.093Z,-1.05
2024-01-17T10:58:10.701Z,-1.03
2024-01-17T11:00:39.847Z,-0.99
2024-01-17T11:03:10.468Z,-0.90
2024-01-17T11:05:48.317Z,-0.88
2024-01-17T11:08:17.010Z,-0.85
2024-01-17T11:10:44.921Z,-0.82
2024-01-17T11:13:13.264Z,-0.71
2024-01-17T11:15:40.878Z,-0.61
2024-01-17T11:18:09.713Z,-0.52
2024-01-17T11:20:37.937Z,-0.49
2024-01-17T11:23:04.892Z,-0.44
2024-01-17T11:25:46.363Z,-0.47
2024-01-17T11:28:25.498Z,-0.45
2024-01-17T11:31:02.216Z,-0.37
2024-01-17T11:33:31.700Z,-0.32
2024-01-17T11:35:58.383Z,-0.29
2024-01-17T11:38:25.028Z,-0.26
2024-01-17T11:40:57.871Z,-0.28
2024-01-17T11:43:28.688Z,-0.31
2024-01-17T11:45:55.434Z,-0.34
2024-01-17T11:48:25.685Z,-0.41
2024-01-17T11:50:55.163Z,-0.44
2024-01-17T11:53:25.878Z,-0.46
2024-01-17T11:55:52.640Z,-0.45
2024-01-17T11:58:19.146Z,-0.46
2024-01-17T12:00:45.787Z,-0.47
2024-01-17T12:03:29.295Z,-0.47
2024-01-17T12:05:56.805Z,-0.47
2024-01-17T12:08:23.711Z,-0.45
2024-01-17T12:10:56.645Z,-0.44
2024-01-17T12:13:24.383Z,-0.48
2024-01-17T12:15:55.512Z,-0.49
2024-01-17T12:18:23.300Z,-0.46
2024-01-17T12:20:50.686Z,-0.43
2024-01-17T12:23:23.021Z,-0.37
2024-01-17T12:25:50.174Z,-0.33
2024-01-17T12:28:23.952Z,-0.30
2024-01-17T12:31:04.164Z,-0.27
2024-01-17T12:33:33.861Z,-0.22
2024-01-17T12:36:04.881Z,-0.18
2024-01-17T12:38:31.932Z,-0.18
2024-01-17T12:40:59.049Z,-0.17
2024-01-17T12:43:28.828Z,-0.17
2024-01-17T12:45:56.699Z,-0.16
2024-01-17T12:48:23.469Z,-0.21
2024-01-17T12:50:55.809Z,-0.28
2024-01-17T12:53:25.057Z,-0.30
2024-01-17T12:55:52.014Z,-0.32
2024-01-17T12:58:18.871Z,-0.31
2024-01-17T13:00:45.695Z,-0.29
2024-01-17T13:03:12.446Z,-0.28
2024-01-17T13:05:39.836Z,-0.25
2024-01-17T13:08:18.082Z,-0.22
2024-01-17T13:10:44.622Z,-0.17
2024-01-17T13:13:11.543Z,-0.14
2024-01-17T13:15:39.858Z,-0.16
2024-01-17T13:18:10.729Z,-0.15
2024-01-17T13:20:37.463Z,-0.16
2024-01-17T13:23:06.023Z,-0.17
2024-01-17T13:25:32.861Z,-0.17
2024-01-17T13:28:00.738Z,-0.21
2024-01-17T13:30:28.613Z,-0.28
2024-01-17T13:32:58.271Z,-0.31
2024-01-17T13:35:25.302Z,-0.32
2024-01-17T13:37:51.876Z,-0.37
2024-01-17T13:40:22.200Z,-0.40
2024-01-17T13:42:48.772Z,-0.42
2024-01-17T13:45:15.517Z,-0.45
2024-01-17T13:47:43.360Z,-0.47
2024-01-17T13:50:23.048Z,-0.50
2024-01-17T13:52:53.681Z,-0.51
2024-01-17T13:55:21.145Z,-0.51
2024-01-17T13:57:48.284Z,-0.51
2024-01-17T14:00:15.545Z,-0.50
2024-01-17T14:02:43.571Z,-0.51
2024-01-17T14:05:14.175Z,-0.52
2024-01-17T14:07:41.469Z,-0.52
2024-01-17T14:10:09.209Z,-0.54
2024-01-17T14:12:36.422Z,-0.53
2024-01-17T14:15:04.510Z,-0.54
2024-01-17T14:17:31.974Z,-0.54
2024-01-17T14:19:59.534Z,-0.54
2024-01-17T14:22:26.369Z,-0.54
2024-01-17T14:24:53.081Z,-0.52
2024-01-17T14:27:20.356Z,-0.52
2024-01-17T14:29:48.991Z,-0.53
2024-01-17T14:32:16.378Z,-0.56
2024-01-17T14:34:44.655Z,-0.57
2024-01-17T14:37:11.304Z,-0.58
2024-01-17T14:39:37.953Z,-0.61
2024-01-17T14:42:05.659Z,-0.62
2024-01-17T14:44:32.481Z,-0.63
2024-01-17T14:46:59.428Z,-0.67
2024-01-17T14:49:26.356Z,-0.68
2024-01-17T14:51:53.178Z,-0.71
2024-01-17T14:54:20.301Z,-0.74
2024-01-17T14:56:47.001Z,-0.77
2024-01-17T14:59:13.530Z,-0.79
2024-01-17T15:01:40.063Z,-0.81
2024-01-17T15:04:06.692Z,-0.84
2024-01-17T15:06:33.313Z,-0.88
2024-01-17T15:08:59.914Z,-0.89
2024-01-17T15:11:27.358Z,-0.90
2024-01-17T15:13:54.167Z,-0.91
2024-01-17T15:16:22.274Z,-0.91
2024-01-17T15:18:49.889Z,-0.92
2024-01-17T15:21:16.694Z,-0.91
2024-01-17T15:23:43.806Z,-0.91
2024-01-17T15:26:10.375Z,-0.92
2024-01-17T15:28:37.537Z,-0.91
2024-01-17T15:31:04.634Z,-0.89
2024-01-17T15:33:32.055Z,-0.87
2024-01-17T15:35:59.378Z,-0.86
2024-01-17T15:38:26.297Z,-0.87
2024-01-17T15:41:06.650Z,-0.88
2024-01-17T15:43:33.556Z,-0.89
2024-01-17T15:46:00.881Z,-0.90
2024-01-17T15:48:27.511Z,-0.92
2024-01-17T15:50:54.109Z,-0.94
2024-01-17T15:53:20.737Z,-0.96
2024-01-17T15:55:47.266Z,-0.93
2024-01-17T15:58:13.858Z,-0.96
2024-01-17T16:00:44.585Z,-0.97
2024-01-17T16:03:11.514Z,-0.96
2024-01-17T16:05:38.215Z,-0.98
2024-01-17T16:08:05.361Z,-1.00
2024-01-17T16:10:32.557Z,-1.00
2024-01-17T16:12:59.348Z,-1.00
2024-01-17T16:15:26.129Z,-1.00
2024-01-17T16:17:53.001Z,-1.00
2024-01-17T16:20:22.926Z,-0.99
2024-01-17T16:22:51.166Z,-0.97
2024-01-17T16:25:17.663Z,-0.95
2024-01-17T16:27:44.173Z,-0.95
2024-01-17T16:30:12.242Z,-0.93
2024-01-17T16:32:41.112Z,-0.93
2024-01-17T16:35:09.314Z,-0.92
2024-01-17T16:37:35.957Z,-0.92
2024-01-17T16:40:04.908Z,-0.92
2024-01-17T16:42:31.986Z,-0.91
2024-01-17T16:44:59.589Z,-0.90
2024-01-17T16:47:26.288Z,-0.91
2024-01-17T16:49:54.644Z,-0.92
2024-01-17T16:52:21.303Z,-0.91
2024-01-17T16:54:49.773Z,-0.90
2024-01-17T16:57:16.377Z,-0.88
2024-01-17T16:59:43.022Z,-0.85
2024-01-17T17:02:09.522Z,-0.85
2024-01-17T17:04:36.275Z,-0.85
2024-01-17T17:07:04.206Z,-0.86
2024-01-17T17:09:30.831Z,-0.84
2024-01-17T17:11:57.472Z,-0.83
2024-01-17T17:14:24.089Z,-0.81
2024-01-17T17:16:50.573Z,-0.80
2024-01-17T17:19:17.191Z,-0.80
2024-01-17T17:21:43.835Z,-0.81
2024-01-17T17:24:10.405Z,-0.80
2024-01-17T17:26:40.154Z,-0.80
2024-01-17T17:29:06.699Z,-0.83
2024-01-17T17:31:33.250Z,-0.82
2024-01-17T17:33:59.934Z,-0.83
2024-01-17T17:36:26.553Z,-0.84
2024-01-17T17:38:53.140Z,-0.83
2024-01-17T17:41:19.656Z,-0.81
2024-01-17T17:43:46.667Z,-0.82
2024-01-17T17:46:13.152Z,-0.82
2024-01-17T17:48:39.926Z,-0.83
2024-01-17T17:51:07.574Z,-0.84
2024-01-17T17:53:35.271Z,-0.86
2024-01-17T17:56:01.854Z,-0.88
2024-01-17T17:58:28.378Z,-0.90
2024-01-17T18:00:55.366Z,-0.93
2024-01-17T18:03:22.623Z,-0.95
2024-01-17T18:05:49.170Z,-0.97
2024-01-17T18:08:15.932Z,-0.99
2024-01-17T18:10:48.619Z,-1.01
2024-01-17T18:13:15.180Z,-1.03
2024-01-17T18:15:41.672Z,-1.03
2024-01-17T18:18:08.377Z,-1.04
2024-01-17T18:20:34.922Z,-1.04
2024-01-17T18:23:01.606Z,-1.06
2024-01-17T18:25:28.169Z,-1.08
2024-01-17T18:27:54.685Z,-1.11
2024-01-17T18:30:21.303Z,-1.12
2024-01-17T18:32:50.402Z,-1.15
2024-01-17T18:35:17.085Z,-1.18
2024-01-17T18:37:43.624Z,-1.17
2024-01-17T18:40:12.427Z,-1.18
2024-01-17T18:42:38.949Z,-1.16
2024-01-17T18:45:06.497Z,-1.17
2024-01-17T18:47:33.063Z,-1.17
2024-01-17T18:49:59.612Z,-1.19
2024-01-17T18:52:30.143Z,-1.18
2024-01-17T18:54:56.634Z,-1.19
2024-01-17T18:57:23.189Z,-1.21
2024-01-17T18:59:50.099Z,-1.23
2024-01-17T19:02:17.178Z,-1.23
2024-01-17T19:04:44.301Z,-1.23
2024-01-17T19:07:12.472Z,-1.23
2024-01-17T19:09:39.499Z,-1.22
2024-01-17T19:12:08.514Z,-1.21
2024-01-17T19:14:35.570Z,-1.20
2024-01-17T19:17:02.396Z,-1.18
2024-01-17T19:19:28.927Z,-1.18
2024-01-17T19:21:55.450Z,-1.16
2024-01-17T19:24:22.057Z,-1.15
2024-01-17T19:26:48.964Z,-1.13
2024-01-17T19:29:15.560Z,-1.12
2024-01-17T19:31:42.105Z,-1.11
2024-01-17T19:34:08.673Z,-1.09
2024-01-17T19:36:35.956Z,-1.05
2024-01-17T19:39:02.946Z,-1.05
2024-01-17T19:41:29.658Z,-1.03
2024-01-17T19:43:56.191Z,-1.03
2024-01-17T19:46:23.585Z,-1.03
2024-01-17T19:48:50.614Z,-1.05
2024-01-17T19:51:18.033Z,-1.07
2024-01-17T19:53:44.712Z,-1.07
2024-01-17T19:56:11.628Z,-1.08
2024-01-17T19:58:38.138Z,-1.08
2024-01-17T20:01:04.736Z,-1.08
2024-01-17T20:03:31.784Z,-1.08
2024-01-17T20:06:00.964Z,-1.11
2024-01-17T20:08:27.699Z,-1.10
2024-01-17T20:10:54.209Z,-1.09
2024-01-17T20:13:21.336Z,-1.08
2024-01-17T20:15:48.801Z,-1.08
2024-01-17T20:18:15.497Z,-1.05
2024-01-17T20:20:42.089Z,-1.03
2024-01-17T20:23:10.052Z,-1.01
2024-01-17T20:25:36.719Z,-0.97
2024-01-17T20:28:03.302Z,-0.98
2024-01-17T20:30:29.869Z,-0.96
2024-01-17T20:32:56.624Z,-0.95
2024-01-17T20:35:23.213Z,-0.94
2024-01-17T20:37:51.157Z,-0.94
2024-01-17T20:40:18.451Z,-0.92
2024-01-17T20:42:46.532Z,-0.92
2024-01-17T20:45:13.184Z,-0.90
2024-01-17T20:47:39.979Z,-0.91
2024-01-17T20:50:07.407Z,-0.90
2024-01-17T20:52:34.783Z,-0.90
2024-01-17T20:55:03.269Z,-0.90
2024-01-17T20:57:29.882Z,-0.89
2024-01-17T20:59:56.503Z,-0.90
2024-01-17T21:02:23.043Z,-0.88
2024-01-17T21:04:49.567Z,-0.90
2024-01-17T21:07:16.059Z,-0.89
2024-01-17T21:09:42.580Z,-0.91
2024-01-17T21:12:09.598Z,-0.93
2024-01-17T21:14:36.698Z,-0.94
2024-01-17T21:17:03.263Z,-0.96
2024-01-17T21:19:29.833Z,-0.97
2024-01-17T21:21:56.353Z,-1.00
2024-01-17T21:24:22.914Z,-1.00
2024-01-17T21:26:49.615Z,-1.01
2024-01-17T21:29:16.225Z,-1.03
2024-01-17T21:31:43.666Z,-1.03
2024-01-17T21:34:10.762Z,-1.03
2024-01-17T21:36:37.684Z,-1.03
2024-01-17T21:39:05.263Z,-1.03
2024-01-17T21:41:32.234Z,-1.02
2024-01-17T21:43:58.790Z,-1.03
2024-01-17T21:46:25.386Z,-1.01
2024-01-17T21:48:52.243Z,-1.00
2024-01-17T21:51:19.143Z,-1.00
2024-01-17T21:53:47.281Z,-0.99
2024-01-17T21:56:13.908Z,-1.01
2024-01-17T21:58:40.659Z,-1.01
2024-01-17T22:01:08.806Z,-1.01
2024-01-17T22:03:36.816Z,-1.02
2024-01-17T22:06:03.839Z,-1.03
2024-01-17T22:08:40.598Z,-1.08
2024-01-17T22:11:15.228Z,-1.10
2024-01-17T22:13:41.755Z,-1.12
2024-01-17T22:16:09.251Z,-1.14
2024-01-17T22:18:36.249Z,-1.16
2024-01-17T22:21:03.171Z,-1.17
2024-01-17T22:23:29.738Z,-1.17
2024-01-17T22:25:56.651Z,-1.19
2024-01-17T22:28:23.781Z,-1.19
2024-01-17T22:30:50.285Z,-1.18
2024-01-17T22:33:17.061Z,-1.18
2024-01-17T22:35:43.642Z,-1.17
2024-01-17T22:38:10.240Z,-1.15
2024-01-17T22:40:36.736Z,-1.16
2024-01-17T22:43:04.710Z,-1.16
2024-01-17T22:45:31.895Z,-1.16
2024-01-17T22:47:58.782Z,-1.15
2024-01-17T22:50:25.430Z,-1.15
2024-01-17T22:52:59.488Z,-1.17
2024-01-17T22:55:29.511Z,-1.16
2024-01-17T22:57:56.064Z,-1.15
2024-01-17T23:00:22.859Z,-1.14
2024-01-17T23:02:53.430Z,-1.15
2024-01-17T23:05:20.249Z,-1.14
2024-01-17T23:07:54.502Z,-1.15
2024-01-17T23:10:28.276Z,-1.15
2024-01-17T23:12:54.939Z,-1.13
2024-01-17T23:15:21.817Z,-1.14
2024-01-17T23:17:48.662Z,-1.15
2024-01-17T23:20:15.313Z,-1.14
2024-01-17T23:22:42.050Z,-1.16
2024-01-17T23:25:08.922Z,-1.16
2024-01-17T23:27:35.846Z,-1.15
2024-01-17T23:30:02.502Z,-1.15
2024-01-17T23:32:29.144Z,-1.15
2024-01-17T23:34:55.737Z,-1.16
2024-01-17T23:37:22.287Z,-1.16
2024-01-17T23:39:48.796Z,-1.17
2024-01-17T23:42:15.358Z,-1.17
2024-01-17T23:44:41.974Z,-1.18
2024-01-17T23:47:08.487Z,-1.18
2024-01-17T23:49:35.072Z,-1.18
2024-01-17T23:52:01.727Z,-1.18
2024-01-17T23:54:28.282Z,-1.19
2024-01-17T23:56:54.871Z,-1.19
2024-01-17T23:59:21.491Z,-1.20
